sensor_id;sensor_type;location;lat;lon;timestamp;temperature;humidity
21849;DHT22;11089;49.852;19.700;2023-03-04T00:02:45;-0.90;99.90
21849;DHT22;11089;49.852;19.700;2023-03-04T00:05:45;-1.00;1.00
21849;DHT22;11089;49.852;19.700;2023-03-04T00:08:47;-1.10;1.00
21849;DHT22;11089;49.852;19.700;2023-03-04T00:11:47;-1.10;21.80
21849;DHT22;11089;49.852;19.700;2023-03-04T00:14:48;-1.10;99.90
21849;DHT22;11089;49.852;19.700;2023-03-04T00:17:49;-1.10;99.90
21849;DHT22;11089;49.852;19.700;2023-03-04T00:20:50;-1.10;99.90
21849;DHT22;11089;49.852;19.700;2023-03-04T00:23:51;-1.10;99.90
21849;DHT22;11089;49.852;19.700;2023-03-04T00:26:52;-1.20;1.00
21849;DHT22;11089;49.852;19.700;2023-03-04T00:29:54;-1.20;1.00
21849;DHT22;11089;49.852;19.700;2023-03-04T00:32:55;-1.20;1.00
21849;DHT22;11089;49.852;19.700;2023-03-04T00:35:56;-1.10;1.00
21849;DHT22;11089;49.852;19.700;2023-03-04T00:38:57;-1.10;1.00
21849;DHT22;11089;49.852;19.700;2023-03-04T00:41:58;-1.20;1.00
21849;DHT22;11089;49.852;19.700;2023-03-04T00:44:59;-1.20;1.00
21849;DHT22;11089;49.852;19.700;2023-03-04T00:48:00;-1.20;1.00
21849;DHT22;11089;49.852;19.700;2023-03-04T00:51:00;-1.20;1.00
21849;DHT22;11089;49.852;19.700;2023-03-04T00:54:02;-1.20;1.00
21849;DHT22;11089;49.852;19.700;2023-03-04T00:57:03;-1.20;1.00
21849;DHT22;11089;49.852;19.700;2023-03-04T01:00:04;-1.30;1.00
21849;DHT22;11089;49.852;19.700;2023-03-04T01:03:05;-1.30;1.00
21849;DHT22;11089;49.852;19.700;2023-03-04T01:06:06;-1.40;1.00
21849;DHT22;11089;49.852;19.700;2023-03-04T01:09:08;-1.40;1.00
21849;DHT22;11089;49.852;19.700;2023-03-04T01:12:08;-1.40;1.00
21849;DHT22;11089;49.852;19.700;2023-03-04T01:15:12;-1.40;16.80
21849;DHT22;11089;49.852;19.700;2023-03-04T01:18:13;-1.40;90.50
21849;DHT22;11089;49.852;19.700;2023-03-04T01:21:14;-1.40;99.90
21849;DHT22;11089;49.852;19.700;2023-03-04T01:24:15;-1.50;99.90
21849;DHT22;11089;49.852;19.700;2023-03-04T01:27:16;-1.50;99.90
21849;DHT22;11089;49.852;19.700;2023-03-04T01:30:17;-1.50;99.90
21849;DHT22;11089;49.852;19.700;2023-03-04T01:33:18;-1.50;99.90
21849;DHT22;11089;49.852;19.700;2023-03-04T01:36:19;-1.60;99.90
21849;DHT22;11089;49.852;19.700;2023-03-04T01:39:20;-1.60;99.90
21849;DHT22;11089;49.852;19.700;2023-03-04T01:42:22;-1.70;99.90
21849;DHT22;11089;49.852;19.700;2023-03-04T01:45:24;-1.70;99.90
21849;DHT22;11089;49.852;19.700;2023-03-04T01:48:28;-1.70;99.90
21849;DHT22;11089;49.852;19.700;2023-03-04T01:51:30;-1.70;99.90
21849;DHT22;11089;49.852;19.700;2023-03-04T01:54:31;-1.70;99.90
21849;DHT22;11089;49.852;19.700;2023-03-04T01:57:34;-1.60;99.90
21849;DHT22;11089;49.852;19.700;2023-03-04T02:00:36;-1.60;99.90
21849;DHT22;11089;49.852;19.700;2023-03-04T02:03:38;-1.60;99.90
21849;DHT22;11089;49.852;19.700;2023-03-04T02:06:40;-1.60;99.90
21849;DHT22;11089;49.852;19.700;2023-03-04T02:09:41;-1.50;99.90
21849;DHT22;11089;49.852;19.700;2023-03-04T02:12:43;-1.60;99.90
21849;DHT22;11089;49.852;19.700;2023-03-04T02:15:45;-1.50;99.90
21849;DHT22;11089;49.852;19.700;2023-03-04T02:18:46;-1.60;99.90
21849;DHT22;11089;49.852;19.700;2023-03-04T02:21:47;-1.50;99.90
21849;DHT22;11089;49.852;19.700;2023-03-04T02:24:56;-1.60;99.90
21849;DHT22;11089;49.852;19.700;2023-03-04T02:27:59;-1.70;99.90
21849;DHT22;11089;49.852;19.700;2023-03-04T02:31:00;-1.70;99.90
21849;DHT22;11089;49.852;19.700;2023-03-04T02:34:23;-1.60;65.50
21849;DHT22;11089;49.852;19.700;2023-03-04T02:37:25;-1.60;1.00
21849;DHT22;11089;49.852;19.700;2023-03-04T02:40:28;-1.50;1.00
21849;DHT22;11089;49.852;19.700;2023-03-04T02:43:30;-1.50;1.00
21849;DHT22;11089;49.852;19.700;2023-03-04T02:46:31;-1.50;1.00
21849;DHT22;11089;49.852;19.700;2023-03-04T02:49:33;-1.40;1.00
21849;DHT22;11089;49.852;19.700;2023-03-04T02:52:36;-1.50;1.00
21849;DHT22;11089;49.852;19.700;2023-03-04T02:55:37;-1.50;1.00
21849;DHT22;11089;49.852;19.700;2023-03-04T02:58:38;-1.50;1.00
21849;DHT22;11089;49.852;19.700;2023-03-04T03:01:39;-1.60;1.00
21849;DHT22;11089;49.852;19.700;2023-03-04T03:04:40;-1.60;1.00
21849;DHT22;11089;49.852;19.700;2023-03-04T03:07:41;-1.50;99.90
21849;DHT22;11089;49.852;19.700;2023-03-04T03:10:42;-1.50;1.00
21849;DHT22;11089;49.852;19.700;2023-03-04T03:13:43;-1.60;1.00
21849;DHT22;11089;49.852;19.700;2023-03-04T03:16:44;-1.60;1.00
21849;DHT22;11089;49.852;19.700;2023-03-04T03:19:45;-1.60;1.00
21849;DHT22;11089;49.852;19.700;2023-03-04T03:22:46;-1.50;99.90
21849;DHT22;11089;49.852;19.700;2023-03-04T03:25:47;-1.50;99.90
21849;DHT22;11089;49.852;19.700;2023-03-04T03:28:48;-1.50;99.90
21849;DHT22;11089;49.852;19.700;2023-03-04T03:31:49;-1.50;99.90
21849;DHT22;11089;49.852;19.700;2023-03-04T03:34:50;-1.50;99.90
21849;DHT22;11089;49.852;19.700;2023-03-04T03:37:51;-1.60;99.90
21849;DHT22;11089;49.852;19.700;2023-03-04T03:40:52;-1.60;99.90
21849;DHT22;11089;49.852;19.700;2023-03-04T03:43:53;-1.60;55.90
21849;DHT22;11089;49.852;19.700;2023-03-04T03:46:54;-1.80;1.00
21849;DHT22;11089;49.852;19.700;2023-03-04T03:49:55;-1.80;1.00
21849;DHT22;11089;49.852;19.700;2023-03-04T03:52:56;-1.70;1.00
21849;DHT22;11089;49.852;19.700;2023-03-04T03:55:57;-1.70;1.00
21849;DHT22;11089;49.852;19.700;2023-03-04T03:58:58;-1.70;11.50
21849;DHT22;11089;49.852;19.700;2023-03-04T04:01:59;-1.80;1.00
21849;DHT22;11089;49.852;19.700;2023-03-04T04:05:00;-1.80;1.00
21849;DHT22;11089;49.852;19.700;2023-03-04T04:08:01;-1.90;1.00
21849;DHT22;11089;49.852;19.700;2023-03-04T04:11:02;-1.90;1.00
21849;DHT22;11089;49.852;19.700;2023-03-04T04:14:03;-1.80;1.00
21849;DHT22;11089;49.852;19.700;2023-03-04T04:17:04;-1.80;1.00
21849;DHT22;11089;49.852;19.700;2023-03-04T04:20:06;-1.80;1.00
21849;DHT22;11089;49.852;19.700;2023-03-04T04:23:07;-1.90;1.00
21849;DHT22;11089;49.852;19.700;2023-03-04T04:26:08;-1.90;1.00
21849;DHT22;11089;49.852;19.700;2023-03-04T04:29:12;-2.00;1.00
21849;DHT22;11089;49.852;19.700;2023-03-04T04:32:14;-2.00;1.00
21849;DHT22;11089;49.852;19.700;2023-03-04T04:35:14;-2.10;1.00
21849;DHT22;11089;49.852;19.700;2023-03-04T04:38:15;-2.10;1.00
21849;DHT22;11089;49.852;19.700;2023-03-04T04:41:22;-2.10;1.00
21849;DHT22;11089;49.852;19.700;2023-03-04T04:44:23;-2.10;19.80
21849;DHT22;11089;49.852;19.700;2023-03-04T04:47:24;-2.10;41.20
21849;DHT22;11089;49.852;19.700;2023-03-04T04:50:26;-2.30;1.00
21849;DHT22;11089;49.852;19.700;2023-03-04T04:53:27;-2.20;99.90
21849;DHT22;11089;49.852;19.700;2023-03-04T04:56:28;-2.30;99.90
21849;DHT22;11089;49.852;19.700;2023-03-04T04:59:29;-2.40;99.90
21849;DHT22;11089;49.852;19.700;2023-03-04T05:02:30;-2.30;1.00
21849;DHT22;11089;49.852;19.700;2023-03-04T05:05:31;-2.40;1.00
21849;DHT22;11089;49.852;19.700;2023-03-04T05:08:32;-2.40;1.00
21849;DHT22;11089;49.852;19.700;2023-03-04T05:11:34;-2.30;99.90
21849;DHT22;11089;49.852;19.700;2023-03-04T05:14:35;-2.30;1.00
21849;DHT22;11089;49.852;19.700;2023-03-04T05:17:35;-2.20;1.00
21849;DHT22;11089;49.852;19.700;2023-03-04T05:20:37;-2.20;1.00
21849;DHT22;11089;49.852;19.700;2023-03-04T05:23:39;-2.20;1.00
21849;DHT22;11089;49.852;19.700;2023-03-04T05:26:40;-2.10;1.00
21849;DHT22;11089;49.852;19.700;2023-03-04T05:29:41;-2.00;1.00
21849;DHT22;11089;49.852;19.700;2023-03-04T05:32:44;-2.00;1.00
21849;DHT22;11089;49.852;19.700;2023-03-04T05:35:45;-1.90;1.00
21849;DHT22;11089;49.852;19.700;2023-03-04T05:38:48;-1.90;1.00
21849;DHT22;11089;49.852;19.700;2023-03-04T05:41:49;-1.90;1.00
21849;DHT22;11089;49.852;19.700;2023-03-04T05:44:50;-1.80;1.00
21849;DHT22;11089;49.852;19.700;2023-03-04T05:47:51;-1.70;1.00
21849;DHT22;11089;49.852;19.700;2023-03-04T05:50:54;-1.70;1.00
21849;DHT22;11089;49.852;19.700;2023-03-04T05:53:55;-1.70;1.00
21849;DHT22;11089;49.852;19.700;2023-03-04T05:56:56;-1.60;53.40
21849;DHT22;11089;49.852;19.700;2023-03-04T05:59:57;-1.60;99.90
21849;DHT22;11089;49.852;19.700;2023-03-04T06:02:57;-1.50;99.90
21849;DHT22;11089;49.852;19.700;2023-03-04T06:05:59;-1.40;99.90
21849;DHT22;11089;49.852;19.700;2023-03-04T06:09:00;-1.40;99.90
21849;DHT22;11089;49.852;19.700;2023-03-04T06:12:00;-1.30;99.90
21849;DHT22;11089;49.852;19.700;2023-03-04T06:15:01;-1.30;99.90
21849;DHT22;11089;49.852;19.700;2023-03-04T06:18:02;-1.30;99.90
21849;DHT22;11089;49.852;19.700;2023-03-04T06:21:04;-1.30;99.90
21849;DHT22;11089;49.852;19.700;2023-03-04T06:24:05;-1.30;99.90
21849;DHT22;11089;49.852;19.700;2023-03-04T06:27:06;-1.40;99.90
21849;DHT22;11089;49.852;19.700;2023-03-04T06:30:07;-1.40;99.90
21849;DHT22;11089;49.852;19.700;2023-03-04T06:33:08;-1.40;99.90
21849;DHT22;11089;49.852;19.700;2023-03-04T06:36:09;-1.40;99.90
21849;DHT22;11089;49.852;19.700;2023-03-04T06:39:10;-1.40;99.90
21849;DHT22;11089;49.852;19.700;2023-03-04T06:42:12;-1.30;99.90
21849;DHT22;11089;49.852;19.700;2023-03-04T06:45:13;-1.30;99.90
21849;DHT22;11089;49.852;19.700;2023-03-04T06:48:14;-1.30;99.90
21849;DHT22;11089;49.852;19.700;2023-03-04T06:51:15;-1.30;99.90
21849;DHT22;11089;49.852;19.700;2023-03-04T06:54:16;-1.30;99.90
21849;DHT22;11089;49.852;19.700;2023-03-04T06:57:17;-1.30;99.90
21849;DHT22;11089;49.852;19.700;2023-03-04T07:00:18;-1.20;99.90
21849;DHT22;11089;49.852;19.700;2023-03-04T07:03:19;-1.10;99.90
21849;DHT22;11089;49.852;19.700;2023-03-04T07:06:23;-1.10;99.90
21849;DHT22;11089;49.852;19.700;2023-03-04T07:09:24;-1.20;99.90
21849;DHT22;11089;49.852;19.700;2023-03-04T07:12:25;-1.20;99.90
21849;DHT22;11089;49.852;19.700;2023-03-04T07:15:26;-1.20;99.90
21849;DHT22;11089;49.852;19.700;2023-03-04T07:18:27;-1.20;99.90
21849;DHT22;11089;49.852;19.700;2023-03-04T07:21:28;-1.20;99.90
21849;DHT22;11089;49.852;19.700;2023-03-04T07:24:29;-1.20;99.90
21849;DHT22;11089;49.852;19.700;2023-03-04T07:27:30;-1.20;99.90
21849;DHT22;11089;49.852;19.700;2023-03-04T07:30:31;-1.10;99.90
21849;DHT22;11089;49.852;19.700;2023-03-04T07:33:32;-1.00;99.90
21849;DHT22;11089;49.852;19.700;2023-03-04T07:36:35;-1.00;99.90
21849;DHT22;11089;49.852;19.700;2023-03-04T07:39:36;-0.90;99.90
21849;DHT22;11089;49.852;19.700;2023-03-04T07:42:37;-0.80;99.90
21849;DHT22;11089;49.852;19.700;2023-03-04T07:45:38;-0.70;47.20
21849;DHT22;11089;49.852;19.700;2023-03-04T07:48:39;-0.70;1.00
21849;DHT22;11089;49.852;19.700;2023-03-04T07:51:40;-0.70;1.00
21849;DHT22;11089;49.852;19.700;2023-03-04T07:54:41;-0.60;1.00
21849;DHT22;11089;49.852;19.700;2023-03-04T07:57:43;-0.60;1.00
21849;DHT22;11089;49.852;19.700;2023-03-04T08:00:45;-0.60;1.00
21849;DHT22;11089;49.852;19.700;2023-03-04T08:03:46;-0.60;1.00
21849;DHT22;11089;49.852;19.700;2023-03-04T08:06:47;-0.50;1.00
21849;DHT22;11089;49.852;19.700;2023-03-04T08:09:48;-0.50;1.00
21849;DHT22;11089;49.852;19.700;2023-03-04T08:12:49;-0.50;1.00
21849;DHT22;11089;49.852;19.700;2023-03-04T08:15:50;-0.40;99.90
21849;DHT22;11089;49.852;19.700;2023-03-04T08:18:53;-0.50;99.90
21849;DHT22;11089;49.852;19.700;2023-03-04T08:21:55;-0.50;18.40
21849;DHT22;11089;49.852;19.700;2023-03-04T08:24:56;-0.40;99.90
21849;DHT22;11089;49.852;19.700;2023-03-04T08:27:57;-0.40;99.90
21849;DHT22;11089;49.852;19.700;2023-03-04T08:30:58;-0.40;99.90
21849;DHT22;11089;49.852;19.700;2023-03-04T08:34:02;-0.20;51.20
21849;DHT22;11089;49.852;19.700;2023-03-04T08:37:03;-0.30;1.00
21849;DHT22;11089;49.852;19.700;2023-03-04T08:40:04;-0.20;1.00
21849;DHT22;11089;49.852;19.700;2023-03-04T08:43:05;-0.20;1.00
21849;DHT22;11089;49.852;19.700;2023-03-04T08:46:06;-0.30;99.90
21849;DHT22;11089;49.852;19.700;2023-03-04T08:49:12;-0.30;1.00
21849;DHT22;11089;49.852;19.700;2023-03-04T08:52:14;-0.30;1.00
21849;DHT22;11089;49.852;19.700;2023-03-04T08:55:15;-0.20;1.00
21849;DHT22;11089;49.852;19.700;2023-03-04T08:58:16;-0.30;1.00
21849;DHT22;11089;49.852;19.700;2023-03-04T09:01:17;-0.30;99.90
21849;DHT22;11089;49.852;19.700;2023-03-04T09:04:18;-0.30;1.00
21849;DHT22;11089;49.852;19.700;2023-03-04T09:07:19;-0.40;1.00
21849;DHT22;11089;49.852;19.700;2023-03-04T09:10:20;-0.40;1.00
21849;DHT22;11089;49.852;19.700;2023-03-04T09:13:22;-0.50;84.50
21849;DHT22;11089;49.852;19.700;2023-03-04T09:16:23;-0.50;1.00
21849;DHT22;11089;49.852;19.700;2023-03-04T09:19:24;-0.40;1.00
21849;DHT22;11089;49.852;19.700;2023-03-04T09:22:27;-0.40;1.00
21849;DHT22;11089;49.852;19.700;2023-03-04T09:25:28;-0.40;1.00
21849;DHT22;11089;49.852;19.700;2023-03-04T09:28:29;-0.20;1.00
21849;DHT22;11089;49.852;19.700;2023-03-04T09:31:30;2.90;1.00
21849;DHT22;11089;49.852;19.700;2023-03-04T09:34:31;4.00;1.00
21849;DHT22;11089;49.852;19.700;2023-03-04T09:37:32;3.00;6.90
21849;DHT22;11089;49.852;19.700;2023-03-04T09:40:40;2.00;99.90
21849;DHT22;11089;49.852;19.700;2023-03-04T09:43:43;1.50;99.90
21849;DHT22;11089;49.852;19.700;2023-03-04T09:46:45;1.30;1.00
21849;DHT22;11089;49.852;19.700;2023-03-04T09:50:10;1.20;99.90
21849;DHT22;11089;49.852;19.700;2023-03-04T09:53:21;1.10;99.90
21849;DHT22;11089;49.852;19.700;2023-03-04T09:56:26;0.90;99.90
21849;DHT22;11089;49.852;19.700;2023-03-04T09:59:38;0.70;1.00
21849;DHT22;11089;49.852;19.700;2023-03-04T10:03:41;0.80;99.90
21849;DHT22;11089;49.852;19.700;2023-03-04T10:06:19;0.80;1.00
21849;DHT22;11089;49.852;19.700;2023-03-04T10:12:28;0.90;1.00
21849;DHT22;11089;49.852;19.700;2023-03-04T10:15:45;0.90;1.00
21849;DHT22;11089;49.852;19.700;2023-03-04T10:25:31;1.00;99.90
21849;DHT22;11089;49.852;19.700;2023-03-04T10:28:34;1.10;1.00
21849;DHT22;11089;49.852;19.700;2023-03-04T10:31:36;1.30;1.00
21849;DHT22;11089;49.852;19.700;2023-03-04T10:34:38;1.30;1.00
21849;DHT22;11089;49.852;19.700;2023-03-04T10:37:48;1.40;99.90
21849;DHT22;11089;49.852;19.700;2023-03-04T10:40:49;1.40;99.90
21849;DHT22;11089;49.852;19.700;2023-03-04T10:44:15;1.40;98.40
21849;DHT22;11089;49.852;19.700;2023-03-04T10:47:16;1.40;99.90
21849;DHT22;11089;49.852;19.700;2023-03-04T10:50:25;1.20;99.90
21849;DHT22;11089;49.852;19.700;2023-03-04T10:53:32;1.30;99.90
21849;DHT22;11089;49.852;19.700;2023-03-04T10:56:42;1.20;99.90
21849;DHT22;11089;49.852;19.700;2023-03-04T11:06:30;1.30;1.00
21849;DHT22;11089;49.852;19.700;2023-03-04T11:09:32;1.30;1.00
21849;DHT22;11089;49.852;19.700;2023-03-04T11:12:34;1.40;1.00
21849;DHT22;11089;49.852;19.700;2023-03-04T11:18:52;1.40;1.00
21849;DHT22;11089;49.852;19.700;2023-03-04T11:21:54;1.20;1.00
21849;DHT22;11089;49.852;19.700;2023-03-04T11:25:03;1.10;1.00
21849;DHT22;11089;49.852;19.700;2023-03-04T11:28:19;1.20;1.00
21849;DHT22;11089;49.852;19.700;2023-03-04T11:31:33;1.30;99.90
21849;DHT22;11089;49.852;19.700;2023-03-04T11:44:25;1.50;1.00
21849;DHT22;11089;49.852;19.700;2023-03-04T11:51:13;1.50;1.00
21849;DHT22;11089;49.852;19.700;2023-03-04T12:01:09;1.70;1.00
21849;DHT22;11089;49.852;19.700;2023-03-04T12:05:30;1.80;1.00
21849;DHT22;11089;49.852;19.700;2023-03-04T12:14:47;1.80;1.00
21849;DHT22;11089;49.852;19.700;2023-03-04T12:25:17;2.00;1.00
21849;DHT22;11089;49.852;19.700;2023-03-04T12:31:52;2.10;99.90
21849;DHT22;11089;49.852;19.700;2023-03-04T12:38:26;2.10;99.90
21849;DHT22;11089;49.852;19.700;2023-03-04T12:44:44;2.20;1.00
21849;DHT22;11089;49.852;19.700;2023-03-04T12:47:59;2.20;99.90
21849;DHT22;11089;49.852;19.700;2023-03-04T12:57:26;2.20;1.00
21849;DHT22;11089;49.852;19.700;2023-03-04T13:00:49;2.30;99.90
21849;DHT22;11089;49.852;19.700;2023-03-04T13:04:04;2.30;99.90
21849;DHT22;11089;49.852;19.700;2023-03-04T13:07:30;2.30;99.90
21849;DHT22;11089;49.852;19.700;2023-03-04T13:10:36;2.30;99.90
21849;DHT22;11089;49.852;19.700;2023-03-04T13:13:41;2.30;99.90
21849;DHT22;11089;49.852;19.700;2023-03-04T13:16:52;2.30;99.90
21849;DHT22;11089;49.852;19.700;2023-03-04T13:20:10;2.30;99.90
21849;DHT22;11089;49.852;19.700;2023-03-04T13:26:22;2.40;78.90
21849;DHT22;11089;49.852;19.700;2023-03-04T13:32:37;2.40;33.80
21849;DHT22;11089;49.852;19.700;2023-03-04T13:35:47;2.50;1.00
21849;DHT22;11089;49.852;19.700;2023-03-04T13:39:38;2.40;1.00
21849;DHT22;11089;49.852;19.700;2023-03-04T13:42:46;2.50;1.00
21849;DHT22;11089;49.852;19.700;2023-03-04T13:45:47;2.50;1.00
21849;DHT22;11089;49.852;19.700;2023-03-04T13:51:49;2.60;1.00
21849;DHT22;11089;49.852;19.700;2023-03-04T13:58:26;2.50;1.00
21849;DHT22;11089;49.852;19.700;2023-03-04T14:01:29;2.60;1.00
21849;DHT22;11089;49.852;19.700;2023-03-04T14:04:39;2.60;1.00
21849;DHT22;11089;49.852;19.700;2023-03-04T14:07:40;2.50;1.00
21849;DHT22;11089;49.852;19.700;2023-03-04T14:10:41;2.50;1.00
21849;DHT22;11089;49.852;19.700;2023-03-04T14:13:43;2.60;1.00
21849;DHT22;11089;49.852;19.700;2023-03-04T14:17:05;2.60;1.00
21849;DHT22;11089;49.852;19.700;2023-03-04T14:23:30;2.60;1.00
21849;DHT22;11089;49.852;19.700;2023-03-04T14:26:32;2.60;1.00
21849;DHT22;11089;49.852;19.700;2023-03-04T14:29:33;2.60;56.80
21849;DHT22;11089;49.852;19.700;2023-03-04T14:32:34;2.50;1.00
21849;DHT22;11089;49.852;19.700;2023-03-04T14:35:35;2.50;1.00
21849;DHT22;11089;49.852;19.700;2023-03-04T14:38:37;2.50;1.00
21849;DHT22;11089;49.852;19.700;2023-03-04T14:41:42;2.50;1.00
21849;DHT22;11089;49.852;19.700;2023-03-04T14:44:47;2.50;1.00
21849;DHT22;11089;49.852;19.700;2023-03-04T14:47:52;2.50;1.00
21849;DHT22;11089;49.852;19.700;2023-03-04T14:50:56;2.50;1.00
21849;DHT22;11089;49.852;19.700;2023-03-04T14:53:57;2.50;1.00
21849;DHT22;11089;49.852;19.700;2023-03-04T14:57:00;2.50;1.00
21849;DHT22;11089;49.852;19.700;2023-03-04T15:00:28;2.50;1.00
21849;DHT22;11089;49.852;19.700;2023-03-04T15:03:30;2.50;1.00
21849;DHT22;11089;49.852;19.700;2023-03-04T15:06:35;2.50;1.00
21849;DHT22;11089;49.852;19.700;2023-03-04T15:09:36;2.50;1.00
21849;DHT22;11089;49.852;19.700;2023-03-04T15:12:38;2.50;1.00
21849;DHT22;11089;49.852;19.700;2023-03-04T15:15:44;2.50;99.90
21849;DHT22;11089;49.852;19.700;2023-03-04T15:19:04;2.50;1.00
21849;DHT22;11089;49.852;19.700;2023-03-04T15:22:06;2.60;99.90
21849;DHT22;11089;49.852;19.700;2023-03-04T15:25:11;2.50;99.90
21849;DHT22;11089;49.852;19.700;2023-03-04T15:28:16;2.50;99.90
21849;DHT22;11089;49.852;19.700;2023-03-04T15:31:21;2.50;1.00
21849;DHT22;11089;49.852;19.700;2023-03-04T15:34:23;2.50;1.00
21849;DHT22;11089;49.852;19.700;2023-03-04T15:37:26;2.50;1.00
21849;DHT22;11089;49.852;19.700;2023-03-04T15:40:46;2.50;99.90
21849;DHT22;11089;49.852;19.700;2023-03-04T15:43:47;2.50;99.90
21849;DHT22;11089;49.852;19.700;2023-03-04T15:46:48;2.50;99.90
21849;DHT22;11089;49.852;19.700;2023-03-04T15:49:49;2.50;99.90
21849;DHT22;11089;49.852;19.700;2023-03-04T15:52:52;2.50;99.90
21849;DHT22;11089;49.852;19.700;2023-03-04T15:55:54;2.50;99.90
21849;DHT22;11089;49.852;19.700;2023-03-04T15:59:00;2.50;99.90
21849;DHT22;11089;49.852;19.700;2023-03-04T16:02:04;2.50;99.90
21849;DHT22;11089;49.852;19.700;2023-03-04T16:05:06;2.60;99.90
21849;DHT22;11089;49.852;19.700;2023-03-04T16:08:13;2.60;99.90
21849;DHT22;11089;49.852;19.700;2023-03-04T16:11:18;2.50;99.90
21849;DHT22;11089;49.852;19.700;2023-03-04T16:14:19;2.60;99.90
21849;DHT22;11089;49.852;19.700;2023-03-04T16:17:20;2.50;17.80
21849;DHT22;11089;49.852;19.700;2023-03-04T16:20:24;2.60;26.10
21849;DHT22;11089;49.852;19.700;2023-03-04T16:23:25;2.60;1.00
21849;DHT22;11089;49.852;19.700;2023-03-04T16:26:26;2.50;99.90
21849;DHT22;11089;49.852;19.700;2023-03-04T16:29:28;2.50;74.80
21849;DHT22;11089;49.852;19.700;2023-03-04T16:32:29;2.60;99.90
21849;DHT22;11089;49.852;19.700;2023-03-04T16:35:31;2.50;99.90
21849;DHT22;11089;49.852;19.700;2023-03-04T16:38:34;2.50;99.90
21849;DHT22;11089;49.852;19.700;2023-03-04T16:41:35;2.50;99.90
21849;DHT22;11089;49.852;19.700;2023-03-04T16:44:36;2.50;99.90
21849;DHT22;11089;49.852;19.700;2023-03-04T16:47:37;2.50;99.90
21849;DHT22;11089;49.852;19.700;2023-03-04T16:50:38;2.50;99.90
21849;DHT22;11089;49.852;19.700;2023-03-04T16:53:41;2.50;39.80
21849;DHT22;11089;49.852;19.700;2023-03-04T16:56:43;2.50;99.90
21849;DHT22;11089;49.852;19.700;2023-03-04T16:59:44;2.50;1.00
21849;DHT22;11089;49.852;19.700;2023-03-04T17:02:52;2.60;1.00
21849;DHT22;11089;49.852;19.700;2023-03-04T17:05:53;2.60;1.00
21849;DHT22;11089;49.852;19.700;2023-03-04T17:08:54;2.60;1.00
21849;DHT22;11089;49.852;19.700;2023-03-04T17:11:55;2.60;1.00
21849;DHT22;11089;49.852;19.700;2023-03-04T17:14:56;2.60;1.00
21849;DHT22;11089;49.852;19.700;2023-03-04T17:17:58;2.60;1.00
21849;DHT22;11089;49.852;19.700;2023-03-04T17:21:07;2.60;1.00
21849;DHT22;11089;49.852;19.700;2023-03-04T17:24:10;2.60;1.00
21849;DHT22;11089;49.852;19.700;2023-03-04T17:27:11;2.60;1.00
21849;DHT22;11089;49.852;19.700;2023-03-04T17:30:13;2.60;1.00
21849;DHT22;11089;49.852;19.700;2023-03-04T17:33:14;2.60;1.00
21849;DHT22;11089;49.852;19.700;2023-03-04T17:36:15;2.60;1.00
21849;DHT22;11089;49.852;19.700;2023-03-04T17:39:17;2.60;1.00
21849;DHT22;11089;49.852;19.700;2023-03-04T17:42:18;2.60;1.00
21849;DHT22;11089;49.852;19.700;2023-03-04T17:45:18;2.60;1.00
21849;DHT22;11089;49.852;19.700;2023-03-04T17:48:19;2.60;1.00
21849;DHT22;11089;49.852;19.700;2023-03-04T17:51:28;2.60;1.00
21849;DHT22;11089;49.852;19.700;2023-03-04T17:54:30;2.60;1.00
21849;DHT22;11089;49.852;19.700;2023-03-04T17:57:34;2.60;1.30
21849;DHT22;11089;49.852;19.700;2023-03-04T18:00:35;2.70;95.40
21849;DHT22;11089;49.852;19.700;2023-03-04T18:03:36;2.60;99.90
21849;DHT22;11089;49.852;19.700;2023-03-04T18:06:37;2.70;99.70
21849;DHT22;11089;49.852;19.700;2023-03-04T18:09:38;2.70;84.30
21849;DHT22;11089;49.852;19.700;2023-03-04T18:12:39;2.70;36.20
21849;DHT22;11089;49.852;19.700;2023-03-04T18:15:40;2.70;43.40
21849;DHT22;11089;49.852;19.700;2023-03-04T18:18:42;2.60;99.90
21849;DHT22;11089;49.852;19.700;2023-03-04T18:21:43;2.70;1.00
21849;DHT22;11089;49.852;19.700;2023-03-04T18:24:43;2.70;95.20
21849;DHT22;11089;49.852;19.700;2023-03-04T18:27:44;2.70;80.80
21849;DHT22;11089;49.852;19.700;2023-03-04T18:30:45;2.70;99.90
21849;DHT22;11089;49.852;19.700;2023-03-04T18:33:47;2.70;99.90
21849;DHT22;11089;49.852;19.700;2023-03-04T18:36:48;2.70;99.90
21849;DHT22;11089;49.852;19.700;2023-03-04T18:39:50;2.70;99.90
21849;DHT22;11089;49.852;19.700;2023-03-04T18:42:51;2.70;99.90
21849;DHT22;11089;49.852;19.700;2023-03-04T18:46:09;2.80;99.90
21849;DHT22;11089;49.852;19.700;2023-03-04T18:49:11;2.70;1.00
21849;DHT22;11089;49.852;19.700;2023-03-04T18:52:13;2.80;1.00
21849;DHT22;11089;49.852;19.700;2023-03-04T18:55:15;2.70;1.00
21849;DHT22;11089;49.852;19.700;2023-03-04T18:58:18;2.70;1.00
21849;DHT22;11089;49.852;19.700;2023-03-04T19:01:21;2.70;1.00
21849;DHT22;11089;49.852;19.700;2023-03-04T19:04:25;2.70;1.00
21849;DHT22;11089;49.852;19.700;2023-03-04T19:07:27;2.70;1.00
21849;DHT22;11089;49.852;19.700;2023-03-04T19:10:28;2.70;69.40
21849;DHT22;11089;49.852;19.700;2023-03-04T19:13:30;2.70;1.00
21849;DHT22;11089;49.852;19.700;2023-03-04T19:16:32;2.70;1.00
21849;DHT22;11089;49.852;19.700;2023-03-04T19:19:33;2.70;1.00
21849;DHT22;11089;49.852;19.700;2023-03-04T19:22:36;2.70;35.10
21849;DHT22;11089;49.852;19.700;2023-03-04T19:25:37;2.70;1.00
21849;DHT22;11089;49.852;19.700;2023-03-04T19:28:38;2.70;1.00
21849;DHT22;11089;49.852;19.700;2023-03-04T19:31:39;2.70;1.00
21849;DHT22;11089;49.852;19.700;2023-03-04T19:34:40;2.70;1.00
21849;DHT22;11089;49.852;19.700;2023-03-04T19:37:41;2.70;1.00
21849;DHT22;11089;49.852;19.700;2023-03-04T19:40:42;2.70;1.00
21849;DHT22;11089;49.852;19.700;2023-03-04T19:43:46;2.70;1.00
21849;DHT22;11089;49.852;19.700;2023-03-04T19:46:47;2.70;1.00
21849;DHT22;11089;49.852;19.700;2023-03-04T19:49:48;2.70;1.00
21849;DHT22;11089;49.852;19.700;2023-03-04T19:52:49;2.70;1.00
21849;DHT22;11089;49.852;19.700;2023-03-04T19:55:50;2.70;1.00
21849;DHT22;11089;49.852;19.700;2023-03-04T19:58:54;2.60;1.00
21849;DHT22;11089;49.852;19.700;2023-03-04T20:01:55;2.70;1.00
21849;DHT22;11089;49.852;19.700;2023-03-04T20:04:57;2.70;99.90
21849;DHT22;11089;49.852;19.700;2023-03-04T20:07:58;2.70;1.00
21849;DHT22;11089;49.852;19.700;2023-03-04T20:11:00;2.70;1.00
21849;DHT22;11089;49.852;19.700;2023-03-04T20:14:02;2.70;1.00
21849;DHT22;11089;49.852;19.700;2023-03-04T20:17:04;2.70;1.00
21849;DHT22;11089;49.852;19.700;2023-03-04T20:20:06;2.70;1.00
21849;DHT22;11089;49.852;19.700;2023-03-04T20:23:10;2.70;99.90
21849;DHT22;11089;49.852;19.700;2023-03-04T20:26:11;2.70;99.90
21849;DHT22;11089;49.852;19.700;2023-03-04T20:29:12;2.70;5.30
21849;DHT22;11089;49.852;19.700;2023-03-04T20:32:13;2.70;1.00
21849;DHT22;11089;49.852;19.700;2023-03-04T20:35:14;2.70;99.90
21849;DHT22;11089;49.852;19.700;2023-03-04T20:38:15;2.70;1.00
21849;DHT22;11089;49.852;19.700;2023-03-04T20:41:17;2.70;99.90
21849;DHT22;11089;49.852;19.700;2023-03-04T20:44:18;2.70;99.90
21849;DHT22;11089;49.852;19.700;2023-03-04T20:47:19;2.60;1.00